createdAt,value
2023-03-02T00:01:48.901Z,7.61
2023-03-02T00:04:21.314Z,7.69
2023-03-02T00:06:49.106Z,7.41
2023-03-02T00:09:17.001Z,7.56
2023-03-02T00:11:45.369Z,7.41
2023-03-02T00:14:12.081Z,7.51
2023-03-02T00:16:40.199Z,7.62
2023-03-02T00:19:06.978Z,7.48
2023-03-02T00:21:33.679Z,7.65
2023-03-02T00:24:00.444Z,7.62
2023-03-02T00:26:27.128Z,7.54
2023-03-02T00:28:53.954Z,7.40
2023-03-02T00:31:21.000Z,7.51
2023-03-02T00:33:48.758Z,7.34
2023-03-02T00:36:19.153Z,7.23
2023-03-02T00:38:45.964Z,7.21
2023-03-02T00:41:13.917Z,7.49
2023-03-02T00:43:40.957Z,7.52
2023-03-02T00:46:11.726Z,7.51
2023-03-02T00:48:38.515Z,7.51
2023-03-02T00:51:07.091Z,7.43
2023-03-02T00:53:35.129Z,7.48
2023-03-02T00:56:03.125Z,7.41
2023-03-02T00:58:32.071Z,7.39
2023-03-02T01:01:00.129Z,7.06
2023-03-02T01:03:27.264Z,7.24
2023-03-02T01:05:55.340Z,7.34
2023-03-02T01:08:23.461Z,7.22
2023-03-02T01:10:50.275Z,7.24
2023-03-02T01:13:18.115Z,7.01
2023-03-02T01:15:44.991Z,6.90
2023-03-02T01:18:13.109Z,7.02
2023-03-02T01:20:39.869Z,6.73
2023-03-02T01:23:06.648Z,7.10
2023-03-02T01:25:33.413Z,7.00
2023-03-02T01:28:00.298Z,7.11
2023-03-02T01:30:27.670Z,7.11
2023-03-02T01:32:54.384Z,7.24
2023-03-02T01:35:21.172Z,7.16
2023-03-02T01:37:47.859Z,7.21
2023-03-02T01:40:14.762Z,7.10
2023-03-02T01:42:50.544Z,7.06
2023-03-02T01:45:55.237Z,7.05
2023-03-02T01:48:52.728Z,6.97
2023-03-02T01:51:29.049Z,6.93
2023-03-02T01:54:06.763Z,7.05
2023-03-02T01:56:36.573Z,7.14
2023-03-02T01:59:09.744Z,7.08
2023-03-02T02:01:38.591Z,6.97
2023-03-02T02:04:06.472Z,7.02
2023-03-02T02:06:48.171Z,6.97
2023-03-02T02:09:17.503Z,6.94
2023-03-02T02:11:44.371Z,6.90
2023-03-02T02:14:11.342Z,6.80
2023-03-02T02:16:38.808Z,6.90
2023-03-02T02:19:16.096Z,6.92
2023-03-02T02:21:42.865Z,6.92
2023-03-02T02:24:28.712Z,6.87
2023-03-02T02:26:56.401Z,6.91
2023-03-02T02:29:38.637Z,6.79
2023-03-02T02:32:14.645Z,6.92
2023-03-02T02:34:46.511Z,6.81
2023-03-02T02:37:22.844Z,6.80
2023-03-02T02:39:50.457Z,6.72
2023-03-02T02:42:23.989Z,6.56
2023-03-02T02:44:51.946Z,6.72
2023-03-02T02:47:20.242Z,6.77
2023-03-02T02:49:49.073Z,6.76
2023-03-02T02:52:18.355Z,6.68
2023-03-02T02:54:49.322Z,6.52
2023-03-02T02:57:17.899Z,6.48
2023-03-02T02:59:49.565Z,6.56
2023-03-02T03:02:26.116Z,6.54
2023-03-02T03:05:02.505Z,6.42
2023-03-02T03:07:32.283Z,6.61
2023-03-02T03:10:19.125Z,6.52
2023-03-02T03:12:46.623Z,6.53
2023-03-02T03:15:14.278Z,6.48
2023-03-02T03:17:41.038Z,6.46
2023-03-02T03:20:09.363Z,6.44
2023-03-02T03:22:40.811Z,6.56
2023-03-02T03:25:10.111Z,6.42
2023-03-02T03:27:36.793Z,6.48
2023-03-02T03:30:05.522Z,6.27
2023-03-02T03:32:35.487Z,6.31
2023-03-02T03:35:03.654Z,6.40
2023-03-02T03:37:32.579Z,6.41
2023-03-02T03:39:59.887Z,6.33
2023-03-02T03:42:27.035Z,6.15
2023-03-02T03:44:55.188Z,6.41
2023-03-02T03:47:22.483Z,6.35
2023-03-02T03:49:50.569Z,6.25
2023-03-02T03:52:17.633Z,6.26
2023-03-02T03:54:44.527Z,6.34
2023-03-02T03:57:12.415Z,6.35
2023-03-02T03:59:39.880Z,6.19
2023-03-02T04:02:06.879Z,6.13
2023-03-02T04:04:39.963Z,6.32
2023-03-02T04:07:11.545Z,6.37
2023-03-02T04:09:39.290Z,6.36
2023-03-02T04:12:08.935Z,6.39
2023-03-02T04:14:36.681Z,6.33
2023-03-02T04:17:05.472Z,6.32
2023-03-02T04:19:35.801Z,6.19
2023-03-02T04:22:04.229Z,6.16
2023-03-02T04:24:32.431Z,6.09
2023-03-02T04:27:02.025Z,5.98
2023-03-02T04:29:29.657Z,5.99
2023-03-02T04:31:56.787Z,5.77
2023-03-02T04:34:26.467Z,5.86
2023-03-02T04:36:53.762Z,6.07
2023-03-02T04:39:20.986Z,5.99
2023-03-02T04:41:51.279Z,5.66
2023-03-02T04:44:18.790Z,5.70
2023-03-02T04:46:46.591Z,5.76
2023-03-02T04:49:15.200Z,5.82
2023-03-02T04:51:44.967Z,5.86
2023-03-02T04:54:17.008Z,5.91
2023-03-02T04:56:43.837Z,5.84
2023-03-02T04:59:10.630Z,5.80
2023-03-02T05:01:37.482Z,5.67
2023-03-02T05:04:04.638Z,5.78
2023-03-02T05:06:31.890Z,5.71
2023-03-02T05:09:00.204Z,5.53
2023-03-02T05:11:27.023Z,5.56
2023-03-02T05:13:56.194Z,5.34
2023-03-02T05:16:24.287Z,5.31
2023-03-02T05:18:51.734Z,5.24
2023-03-02T05:21:19.120Z,5.33
2023-03-02T05:23:47.116Z,5.26
2023-03-02T05:26:14.850Z,5.31
2023-03-02T05:28:42.150Z,5.45
2023-03-02T05:31:10.162Z,5.46
2023-03-02T05:33:36.859Z,5.71
2023-03-02T05:36:03.762Z,5.40
2023-03-02T05:38:31.724Z,5.66
2023-03-02T05:40:58.506Z,5.63
2023-03-02T05:43:25.239Z,5.76
2023-03-02T05:45:52.004Z,5.74
2023-03-02T05:48:18.864Z,5.77
2023-03-02T05:50:45.619Z,5.79
2023-03-02T05:53:12.387Z,5.84
2023-03-02T05:55:39.091Z,5.81
2023-03-02T05:58:13.052Z,5.79
2023-03-02T06:00:40.019Z,5.76
2023-03-02T06:03:06.721Z,5.70
2023-03-02T06:05:33.487Z,5.82
2023-03-02T06:08:00.479Z,5.75
2023-03-02T06:10:27.565Z,5.73
2023-03-02T06:12:54.495Z,5.79
2023-03-02T06:15:21.230Z,5.79
2023-03-02T06:17:48.377Z,5.83
2023-03-02T06:20:15.652Z,5.78
2023-03-02T06:22:47.050Z,5.74
2023-03-02T06:25:17.997Z,5.83
2023-03-02T06:27:45.045Z,5.77
2023-03-02T06:30:15.607Z,5.82
2023-03-02T06:32:43.258Z,5.84
2023-03-02T06:35:10.784Z,5.70
2023-03-02T06:37:37.553Z,5.80
2023-03-02T06:40:08.849Z,5.75
2023-03-02T06:42:35.827Z,5.73
2023-03-02T06:45:02.675Z,5.77
2023-03-02T06:47:29.459Z,5.77
2023-03-02T06:49:57.066Z,5.94
2023-03-02T06:52:23.877Z,5.81
2023-03-02T06:54:50.523Z,5.89
2023-03-02T06:57:17.247Z,5.92
2023-03-02T06:59:43.909Z,5.79
2023-03-02T07:02:11.436Z,5.92
2023-03-02T07:04:38.297Z,5.75
2023-03-02T07:07:05.446Z,5.97
2023-03-02T07:09:35.202Z,6.07
2023-03-02T07:12:02.145Z,6.11
2023-03-02T07:14:29.002Z,6.11
2023-03-02T07:16:57.579Z,5.93
2023-03-02T07:19:24.609Z,5.91
2023-03-02T07:21:51.312Z,5.98
2023-03-02T07:24:18.093Z,5.92
2023-03-02T07:26:44.944Z,5.78
2023-03-02T07:29:11.775Z,5.60
2023-03-02T07:31:39.710Z,6.01
2023-03-02T07:34:06.464Z,6.06
2023-03-02T07:36:33.172Z,6.31
2023-03-02T07:38:59.818Z,6.15
2023-03-02T07:41:26.591Z,6.06
2023-03-02T07:43:53.342Z,5.86
2023-03-02T07:46:20.181Z,5.82
2023-03-02T07:48:46.987Z,5.79
2023-03-02T07:51:13.777Z,5.91
2023-03-02T07:53:40.452Z,5.85
2023-03-02T07:56:09.296Z,5.82
2023-03-02T07:58:37.886Z,5.40
2023-03-02T08:01:05.027Z,5.80
2023-03-02T08:03:31.768Z,7.04
2023-03-02T08:05:58.516Z,9.24
2023-03-02T08:08:25.228Z,12.47
2023-03-02T08:10:52.676Z,15.17
2023-03-02T08:13:19.489Z,16.41
2023-03-02T08:15:46.338Z,17.75
2023-03-02T08:18:16.945Z,16.37
2023-03-02T08:20:46.596Z,15.28
2023-03-02T08:23:13.357Z,16.25
2023-03-02T08:25:42.986Z,14.55
2023-03-02T08:28:09.818Z,15.87
2023-03-02T08:30:36.591Z,15.56
2023-03-02T08:33:06.965Z,15.94
2023-03-02T08:35:34.043Z,16.00
2023-03-02T08:38:00.887Z,14.61
2023-03-02T08:40:27.721Z,15.33
2023-03-02T08:42:57.530Z,14.38
2023-03-02T08:45:24.689Z,12.18
2023-03-02T08:47:54.194Z,10.71
2023-03-02T08:50:21.674Z,11.40
2023-03-02T08:52:49.982Z,11.72
2023-03-02T08:55:18.654Z,10.28
2023-03-02T08:57:45.424Z,9.95
2023-03-02T09:00:14.845Z,9.72
2023-03-02T09:02:41.878Z,10.38
2023-03-02T09:05:09.191Z,9.19
2023-03-02T09:07:36.065Z,9.32
2023-03-02T09:10:03.105Z,9.60
2023-03-02T09:12:30.011Z,9.05
2023-03-02T09:14:56.794Z,8.44
2023-03-02T09:17:23.546Z,8.23
2023-03-02T09:19:50.284Z,8.07
2023-03-02T09:22:17.613Z,8.87
2023-03-02T09:24:44.334Z,8.99
2023-03-02T09:27:11.693Z,8.95
2023-03-02T09:29:38.708Z,9.37
2023-03-02T09:32:05.917Z,9.24
2023-03-02T09:34:32.774Z,8.11
2023-03-02T09:36:59.535Z,8.55
2023-03-02T09:39:26.399Z,8.45
2023-03-02T09:42:08.374Z,8.86
2023-03-02T09:44:56.665Z,9.26
2023-03-02T09:47:36.085Z,8.62
2023-03-02T09:50:12.118Z,8.90
2023-03-02T09:52:45.123Z,9.42
2023-03-02T09:55:28.884Z,9.52
2023-03-02T09:57:56.138Z,9.35
2023-03-02T10:00:31.250Z,9.05
2023-03-02T10:03:16.667Z,9.44
2023-03-02T10:05:49.816Z,9.28
2023-03-02T10:08:29.933Z,9.13
2023-03-02T10:11:08.858Z,9.70
2023-03-02T10:13:49.291Z,9.83
2023-03-02T10:16:23.962Z,9.45
2023-03-02T10:19:05.865Z,9.74
2023-03-02T10:21:40.666Z,9.56
2023-03-02T10:24:21.750Z,9.50
2023-03-02T10:26:53.727Z,9.50
2023-03-02T10:29:20.396Z,9.05
2023-03-02T10:31:50.003Z,9.51
2023-03-02T10:34:16.748Z,9.33
2023-03-02T10:36:47.641Z,9.22
2023-03-02T10:39:15.943Z,8.95
2023-03-02T10:41:53.554Z,9.23
2023-03-02T10:44:32.193Z,8.87
2023-03-02T10:46:59.385Z,9.58
2023-03-02T10:49:36.658Z,9.36
2023-03-02T10:52:13.374Z,9.09
2023-03-02T10:54:40.279Z,9.45
2023-03-02T10:57:39.937Z,9.03
2023-03-02T11:00:21.978Z,9.22
2023-03-02T11:03:12.238Z,9.43
2023-03-02T11:05:40.075Z,9.62
2023-03-02T11:08:10.195Z,9.88
2023-03-02T11:10:42.195Z,9.86
2023-03-02T11:13:23.805Z,9.46
2023-03-02T11:15:52.343Z,9.71
2023-03-02T11:18:37.176Z,10.24
2023-03-02T11:21:06.985Z,9.70
2023-03-02T11:23:33.766Z,9.54
2023-03-02T11:26:06.604Z,9.95
2023-03-02T11:28:49.770Z,10.47
2023-03-02T11:31:43.224Z,10.30
2023-03-02T11:34:18.335Z,9.56
2023-03-02T11:37:03.825Z,10.26
2023-03-02T11:39:59.188Z,10.13
2023-03-02T11:42:29.536Z,10.23
2023-03-02T11:44:57.122Z,10.08
2023-03-02T11:47:24.051Z,10.27
2023-03-02T11:50:01.932Z,10.23
2023-03-02T11:52:31.076Z,10.42
2023-03-02T11:55:06.944Z,10.46
2023-03-02T11:57:38.684Z,10.97
2023-03-02T12:00:34.102Z,10.50
2023-03-02T12:03:03.697Z,10.41
2023-03-02T12:05:36.478Z,10.97
2023-03-02T12:08:07.102Z,10.18
2023-03-02T12:10:42.584Z,10.45
2023-03-02T12:13:21.690Z,10.38
2023-03-02T12:15:56.017Z,10.88
2023-03-02T12:18:22.860Z,10.71
2023-03-02T12:21:00.975Z,10.32
2023-03-02T12:23:29.044Z,10.47
2023-03-02T12:26:25.580Z,10.59
2023-03-02T12:29:15.757Z,10.67
2023-03-02T12:31:54.773Z,10.65
2023-03-02T12:34:26.466Z,10.67
2023-03-02T12:37:00.674Z,10.57
2023-03-02T12:39:30.801Z,10.77
2023-03-02T12:42:06.441Z,11.11
2023-03-02T12:45:02.453Z,11.30
2023-03-02T12:47:30.250Z,11.36
2023-03-02T12:50:01.314Z,11.21
2023-03-02T12:52:33.802Z,11.22
2023-03-02T12:55:21.370Z,11.07
2023-03-02T12:57:50.347Z,11.34
2023-03-02T13:00:20.385Z,11.87
2023-03-02T13:02:49.577Z,10.79
2023-03-02T13:05:25.210Z,11.03
2023-03-02T13:08:00.964Z,11.27
2023-03-02T13:10:42.123Z,11.32
2023-03-02T13:13:35.184Z,11.06
2023-03-02T13:16:06.152Z,11.29
2023-03-02T13:18:34.993Z,12.05
2023-03-02T13:21:03.682Z,11.81
2023-03-02T13:23:32.458Z,11.73
2023-03-02T13:26:01.818Z,11.54
2023-03-02T13:28:30.148Z,11.60
2023-03-02T13:31:04.298Z,11.57
2023-03-02T13:33:32.621Z,11.92
2023-03-02T13:35:59.702Z,11.94
2023-03-02T13:38:32.789Z,11.50
2023-03-02T13:40:59.561Z,12.21
2023-03-02T13:43:26.364Z,12.21
2023-03-02T13:45:58.814Z,12.21
2023-03-02T13:48:27.804Z,12.05
2023-03-02T13:51:15.320Z,12.03
2023-03-02T13:53:46.504Z,12.15
2023-03-02T13:56:15.242Z,12.00
2023-03-02T13:58:42.086Z,12.06
2023-03-02T14:01:11.254Z,11.72
2023-03-02T14:03:37.916Z,12.30
2023-03-02T14:06:06.151Z,11.95
2023-03-02T14:08:32.918Z,12.25
2023-03-02T14:11:01.237Z,12.14
2023-03-02T14:13:51.123Z,12.12
2023-03-02T14:16:18.083Z,12.53
2023-03-02T14:18:47.183Z,12.62
2023-03-02T14:21:19.230Z,12.27
2023-03-02T14:23:46.873Z,12.58
2023-03-02T14:26:32.071Z,12.44
2023-03-02T14:29:10.704Z,12.33
2023-03-02T14:31:37.590Z,12.79
2023-03-02T14:34:04.310Z,12.54
2023-03-02T14:36:33.600Z,12.52
2023-03-02T14:39:04.168Z,12.47
2023-03-02T14:41:34.338Z,12.44
2023-03-02T14:44:05.184Z,12.10
2023-03-02T14:46:31.993Z,12.19
2023-03-02T14:48:58.838Z,12.31
2023-03-02T14:51:27.453Z,12.26
2023-03-02T14:53:55.481Z,12.22
2023-03-02T14:56:25.731Z,12.08
2023-03-02T14:58:53.328Z,12.57
2023-03-02T15:01:24.169Z,12.46
2023-03-02T15:03:50.971Z,12.67
2023-03-02T15:06:38.725Z,12.57
2023-03-02T15:09:05.769Z,12.56
2023-03-02T15:11:32.784Z,12.91
2023-03-02T15:13:59.822Z,12.53
2023-03-02T15:16:26.564Z,12.40
2023-03-02T15:18:53.980Z,12.37
2023-03-02T15:21:22.710Z,12.49
2023-03-02T15:23:49.662Z,12.49
2023-03-02T15:26:16.594Z,12.54
2023-03-02T15:28:45.767Z,12.16
2023-03-02T15:31:15.508Z,12.71
2023-03-02T15:33:43.238Z,12.89
2023-03-02T15:36:10.164Z,12.60
2023-03-02T15:38:37.203Z,12.46
2023-03-02T15:41:06.089Z,12.60
2023-03-02T15:43:33.146Z,12.60
2023-03-02T15:46:00.897Z,12.43
2023-03-02T15:48:29.034Z,12.19
2023-03-02T15:50:59.752Z,12.39
2023-03-02T15:53:27.155Z,12.71
2023-03-02T15:55:54.075Z,13.00
2023-03-02T15:58:22.050Z,12.82
2023-03-02T16:00:49.701Z,12.42
2023-03-02T16:03:16.908Z,12.50
2023-03-02T16:05:43.658Z,11.90
2023-03-02T16:08:10.550Z,12.40
2023-03-02T16:10:37.707Z,12.41
2023-03-02T16:13:05.916Z,12.30
2023-03-02T16:15:42.064Z,12.49
2023-03-02T16:18:10.087Z,12.46
2023-03-02T16:20:40.062Z,12.74
2023-03-02T16:23:08.245Z,12.44
2023-03-02T16:25:38.163Z,12.37
2023-03-02T16:28:04.975Z,12.40
2023-03-02T16:30:32.464Z,12.39
2023-03-02T16:33:00.759Z,12.27
2023-03-02T16:35:29.312Z,12.10
2023-03-02T16:37:56.197Z,12.46
2023-03-02T16:40:23.593Z,12.30
2023-03-02T16:42:51.171Z,12.53
2023-03-02T16:45:19.328Z,12.05
2023-03-02T16:47:46.554Z,12.04
2023-03-02T16:50:15.591Z,11.96
2023-03-02T16:52:42.578Z,11.85
2023-03-02T16:55:15.565Z,12.20
2023-03-02T16:57:43.083Z,12.35
2023-03-02T17:00:12.964Z,12.50
2023-03-02T17:02:39.914Z,12.58
2023-03-02T17:05:06.836Z,12.11
2023-03-02T17:07:34.120Z,11.80
2023-03-02T17:10:00.872Z,12.30
2023-03-02T17:12:27.810Z,11.81
2023-03-02T17:14:54.649Z,12.03
2023-03-02T17:17:21.510Z,12.05
2023-03-02T17:19:48.235Z,11.89
2023-03-02T17:22:15.244Z,11.95
2023-03-02T17:24:41.971Z,12.12
2023-03-02T17:27:23.804Z,12.17
2023-03-02T17:29:52.347Z,12.13
2023-03-02T17:32:19.424Z,12.15
2023-03-02T17:34:46.904Z,11.99
2023-03-02T17:37:14.130Z,12.12
2023-03-02T17:39:40.869Z,12.25
2023-03-02T17:42:10.185Z,12.26
2023-03-02T17:44:40.570Z,12.15
2023-03-02T17:47:10.022Z,12.19
2023-03-02T17:49:41.246Z,12.16
2023-03-02T17:52:07.988Z,12.20
2023-03-02T17:54:35.016Z,12.16
2023-03-02T17:57:05.117Z,12.12
2023-03-02T17:59:32.124Z,12.05
2023-03-02T18:01:58.979Z,12.07
2023-03-02T18:04:25.807Z,11.98
2023-03-02T18:06:54.119Z,11.97
2023-03-02T18:09:20.895Z,11.92
2023-03-02T18:11:48.576Z,11.93
2023-03-02T18:14:19.087Z,11.89
2023-03-02T18:16:46.481Z,11.93
2023-03-02T18:19:13.804Z,11.87
2023-03-02T18:21:41.867Z,11.85
2023-03-02T18:24:09.332Z,11.83
2023-03-02T18:26:36.231Z,11.79
2023-03-02T18:29:03.004Z,11.85
2023-03-02T18:31:31.438Z,11.80
2023-03-02T18:33:59.048Z,11.74
2023-03-02T18:36:25.748Z,11.72
2023-03-02T18:38:53.946Z,11.68
2023-03-02T18:41:22.107Z,11.68
2023-03-02T18:43:49.334Z,11.68
2023-03-02T18:46:24.994Z,11.67
2023-03-02T18:48:52.879Z,11.65
2023-03-02T18:51:22.657Z,11.58
2023-03-02T18:53:51.140Z,11.58
2023-03-02T18:56:18.618Z,11.54
2023-03-02T18:58:47.359Z,11.59
2023-03-02T19:01:14.186Z,11.61
2023-03-02T19:03:41.880Z,11.61
2023-03-02T19:06:09.115Z,11.58
2023-03-02T19:08:36.160Z,11.44
2023-03-02T19:11:04.719Z,11.54
2023-03-02T19:13:31.535Z,11.51
2023-03-02T19:15:58.737Z,11.48
2023-03-02T19:18:26.125Z,11.44
2023-03-02T19:20:54.338Z,11.47
2023-03-02T19:23:21.471Z,11.44
2023-03-02T19:25:49.801Z,11.45
2023-03-02T19:28:16.755Z,11.44
2023-03-02T19:30:43.692Z,11.09
2023-03-02T19:33:10.893Z,11.06
2023-03-02T19:35:38.674Z,11.11
2023-03-02T19:38:06.896Z,11.02
2023-03-02T19:40:35.026Z,10.80
2023-03-02T19:43:02.464Z,10.60
2023-03-02T19:45:32.564Z,10.77
2023-03-02T19:48:00.699Z,10.64
2023-03-02T19:50:28.878Z,10.71
2023-03-02T19:52:57.554Z,10.58
2023-03-02T19:55:25.361Z,10.32
2023-03-02T19:57:59.788Z,10.58
2023-03-02T20:00:31.870Z,10.32
2023-03-02T20:02:59.964Z,10.61
2023-03-02T20:05:27.877Z,10.41
2023-03-02T20:07:54.960Z,10.64
2023-03-02T20:10:41.516Z,10.66
2023-03-02T20:13:09.605Z,10.52
2023-03-02T20:15:39.113Z,10.32
2023-03-02T20:18:11.822Z,10.27
2023-03-02T20:20:39.465Z,9.89
2023-03-02T20:23:06.897Z,10.16
2023-03-02T20:25:34.213Z,10.14
2023-03-02T20:28:05.650Z,9.83
2023-03-02T20:30:40.143Z,10.18
2023-03-02T20:33:08.543Z,10.01
2023-03-02T20:35:39.880Z,10.25
2023-03-02T20:38:10.479Z,9.77
2023-03-02T20:40:37.436Z,10.08
2023-03-02T20:43:05.357Z,9.96
2023-03-02T20:45:33.424Z,9.92
2023-03-02T20:48:00.619Z,9.74
2023-03-02T20:50:30.167Z,9.74
2023-03-02T20:52:57.099Z,10.04
2023-03-02T20:55:26.216Z,10.04
2023-03-02T20:57:54.498Z,9.74
2023-03-02T21:00:24.204Z,9.95
2023-03-02T21:02:51.078Z,9.89
2023-03-02T21:05:18.766Z,9.74
2023-03-02T21:07:45.819Z,9.63
2023-03-02T21:10:16.887Z,9.50
2023-03-02T21:12:44.425Z,9.79
2023-03-02T21:15:12.316Z,10.04
2023-03-02T21:17:39.142Z,9.98
2023-03-02T21:20:06.666Z,10.02
2023-03-02T21:22:33.842Z,10.14
2023-03-02T21:25:00.630Z,10.28
2023-03-02T21:27:27.457Z,10.14
2023-03-02T21:29:54.107Z,10.28
2023-03-02T21:32:21.131Z,10.30
2023-03-02T21:34:47.862Z,10.37
2023-03-02T21:37:14.740Z,10.27
2023-03-02T21:39:41.518Z,10.32
2023-03-02T21:42:08.221Z,10.36
2023-03-02T21:44:34.999Z,10.40
2023-03-02T21:47:01.734Z,10.37
2023-03-02T21:49:28.613Z,10.27
2023-03-02T21:51:55.322Z,10.22
2023-03-02T21:54:22.113Z,10.27
2023-03-02T21:56:49.172Z,10.23
2023-03-02T21:59:15.914Z,10.10
2023-03-02T22:01:44.252Z,9.99
2023-03-02T22:04:11.626Z,10.06
2023-03-02T22:06:38.376Z,9.92
2023-03-02T22:09:05.213Z,9.78
2023-03-02T22:11:35.203Z,9.85
2023-03-02T22:14:10.659Z,9.95
2023-03-02T22:16:39.447Z,9.87
2023-03-02T22:19:20.533Z,9.86
2023-03-02T22:21:48.369Z,9.71
2023-03-02T22:24:27.218Z,9.82
2023-03-02T22:26:56.936Z,9.81
2023-03-02T22:29:41.858Z,9.56
2023-03-02T22:32:20.335Z,9.54
2023-03-02T22:34:53.087Z,9.73
2023-03-02T22:37:25.607Z,9.72
2023-03-02T22:39:58.460Z,9.65
2023-03-02T22:42:27.142Z,9.75
2023-03-02T22:45:15.893Z,9.53
2023-03-02T22:47:51.530Z,9.65
2023-03-02T22:50:26.917Z,9.68
2023-03-02T22:52:59.914Z,9.63
2023-03-02T22:55:42.961Z,9.57
2023-03-02T22:58:27.916Z,9.62
2023-03-02T23:01:04.318Z,9.64
2023-03-02T23:03:38.545Z,9.59
2023-03-02T23:06:33.876Z,9.55
2023-03-02T23:09:07.261Z,9.58
2023-03-02T23:11:37.732Z,9.50
2023-03-02T23:14:28.725Z,9.29
2023-03-02T23:17:01.047Z,9.19
2023-03-02T23:19:30.132Z,9.19
2023-03-02T23:21:58.226Z,9.17
2023-03-02T23:24:25.694Z,9.18
2023-03-02T23:26:55.782Z,9.25
2023-03-02T23:29:22.931Z,9.15
2023-03-02T23:31:50.469Z,9.27
2023-03-02T23:34:17.422Z,9.21
2023-03-02T23:36:44.203Z,9.03
2023-03-02T23:39:11.359Z,9.08
2023-03-02T23:41:39.046Z,9.06
2023-03-02T23:44:07.398Z,9.05
2023-03-02T23:46:34.721Z,8.95
2023-03-02T23:49:01.501Z,8.82
2023-03-02T23:51:28.220Z,8.77
2023-03-02T23:53:55.205Z,8.78
2023-03-02T23:56:22.253Z,8.74
2023-03-02T23:58:49.210Z,8.54
